createdAt,value
2022-08-05T00:00:29.705Z,31.58
2022-08-05T00:02:59.978Z,37.85
2022-08-05T00:06:06.487Z,49.10
2022-08-05T00:08:35.199Z,40.15
2022-08-05T00:11:20.786Z,43.72
2022-08-05T00:14:00.766Z,31.85
2022-08-05T00:16:35.418Z,44.30
2022-08-05T00:19:07.847Z,41.55
2022-08-05T00:21:38.437Z,36.53
2022-08-05T00:24:24.733Z,46.25
2022-08-05T00:27:10.517Z,40.75
2022-08-05T00:29:44.306Z,44.35
2022-08-05T00:32:15.829Z,42.90
2022-08-05T00:35:04.759Z,48.75
2022-08-05T00:37:52.852Z,50.17
2022-08-05T00:40:29.343Z,39.75
2022-08-05T00:43:01.743Z,43.05
2022-08-05T00:45:43.194Z,60.42
2022-08-05T00:48:31.232Z,39.97
2022-08-05T00:51:08.761Z,47.63
2022-08-05T00:54:02.472Z,50.72
2022-08-05T00:56:33.419Z,41.70
2022-08-05T00:59:06.982Z,44.42
2022-08-05T01:01:48.667Z,39.58
2022-08-05T01:04:19.946Z,43.90
2022-08-05T01:06:57.082Z,37.42
2022-08-05T01:09:30.521Z,37.88
2022-08-05T01:12:18.248Z,39.75
2022-08-05T01:15:36.315Z,40.08
2022-08-05T01:18:09.287Z,38.67
2022-08-05T01:21:03.022Z,40.53
2022-08-05T01:24:13.073Z,39.78
2022-08-05T01:27:19.126Z,37.40
2022-08-05T01:29:52.864Z,37.22
2022-08-05T01:32:29.896Z,48.67
2022-08-05T01:35:12.649Z,40.97
2022-08-05T01:38:07.106Z,42.47
2022-08-05T01:40:45.783Z,40.45
2022-08-05T01:43:22.210Z,46.63
2022-08-05T01:45:56.688Z,39.65
2022-08-05T01:48:29.722Z,42.25
2022-08-05T01:51:11.956Z,46.53
2022-08-05T01:53:57.327Z,43.28
2022-08-05T01:58:11.073Z,44.08
2022-08-05T01:59:26.215Z,41.15
2022-08-05T02:01:59.118Z,49.17
2022-08-05T02:04:33.010Z,41.25
2022-08-05T02:07:04.202Z,37.22
2022-08-05T02:09:36.910Z,39.47
2022-08-05T02:12:19.610Z,35.80
2022-08-05T02:15:03.948Z,29.73
2022-08-05T02:18:33.038Z,34.15
2022-08-05T02:20:55.193Z,35.60
2022-08-05T02:23:33.910Z,33.58
2022-08-05T02:26:11.994Z,41.05
2022-08-05T02:28:46.373Z,38.80
2022-08-05T02:31:24.713Z,31.17
2022-08-05T02:34:05.146Z,23.50
2022-08-05T02:36:39.160Z,25.70
2022-08-05T02:39:14.782Z,22.50
2022-08-05T02:42:00.806Z,24.20
2022-08-05T02:44:34.507Z,26.08
2022-08-05T02:47:07.023Z,29.20
2022-08-05T02:49:44.342Z,51.75
2022-08-05T02:52:29.754Z,24.95
2022-08-05T02:55:05.627Z,23.27
2022-08-05T02:58:10.937Z,31.80
2022-08-05T03:00:33.464Z,29.77
2022-08-05T03:03:10.257Z,30.15
2022-08-05T03:06:55.219Z,27.30
2022-08-05T03:08:34.477Z,26.42
2022-08-05T03:11:57.148Z,22.95
2022-08-05T03:14:03.053Z,23.63
2022-08-05T03:16:34.003Z,24.97
2022-08-05T03:19:17.248Z,27.90
2022-08-05T03:21:57.994Z,27.95
2022-08-05T03:24:30.667Z,30.48
2022-08-05T03:27:06.685Z,25.13
2022-08-05T03:29:45.474Z,31.38
2022-08-05T03:32:30.977Z,25.45
2022-08-05T03:35:02.286Z,21.45
2022-08-05T03:37:47.626Z,22.90
2022-08-05T03:40:24.608Z,22.67
2022-08-05T03:43:59.083Z,22.25
2022-08-05T03:45:57.681Z,24.73
2022-08-05T03:48:30.633Z,23.02
2022-08-05T03:52:37.263Z,29.40
2022-08-05T03:55:51.173Z,22.95
2022-08-05T03:57:41.538Z,22.10
2022-08-05T04:00:16.584Z,20.90
2022-08-05T04:02:58.359Z,21.55
2022-08-05T04:05:33.821Z,21.15
2022-08-05T04:08:29.652Z,21.10
2022-08-05T04:11:04.037Z,23.33
2022-08-05T04:13:51.211Z,19.80
2022-08-05T04:16:32.304Z,19.48
2022-08-05T04:19:03.640Z,24.27
2022-08-05T04:22:08.824Z,21.27
2022-08-05T04:24:32.661Z,20.70
2022-08-05T04:27:03.107Z,23.40
2022-08-05T04:29:34.378Z,23.63
2022-08-05T04:32:06.532Z,22.88
2022-08-05T04:34:42.877Z,25.33
2022-08-05T04:37:13.960Z,20.17
2022-08-05T04:39:45.724Z,17.23
2022-08-05T04:42:25.542Z,20.05
2022-08-05T04:44:56.632Z,16.02
2022-08-05T04:47:27.086Z,26.90
2022-08-05T04:50:01.515Z,25.17
2022-08-05T04:52:36.584Z,17.25
2022-08-05T04:55:14.362Z,18.73
2022-08-05T04:57:51.568Z,17.52
2022-08-05T05:00:24.969Z,20.55
2022-08-05T05:02:57.309Z,16.55
2022-08-05T05:05:30.632Z,21.95
2022-08-05T05:08:14.413Z,20.17
2022-08-05T05:11:07.811Z,16.67
2022-08-05T05:13:43.357Z,24.73
2022-08-05T05:16:14.343Z,23.83
2022-08-05T05:19:08.880Z,19.77
2022-08-05T05:21:37.377Z,27.77
2022-08-05T05:24:09.325Z,26.92
2022-08-05T05:26:39.879Z,13.43
2022-08-05T05:29:16.904Z,11.80
2022-08-05T05:31:51.275Z,13.20
2022-08-05T05:34:26.878Z,16.40
2022-08-05T05:36:57.743Z,13.30
2022-08-05T05:39:31.736Z,15.23
2022-08-05T05:42:05.367Z,17.55
2022-08-05T05:44:37.515Z,18.25
2022-08-05T05:47:22.108Z,13.32
2022-08-05T05:52:34.553Z,12.20
2022-08-05T05:55:13.891Z,17.42
2022-08-05T05:57:52.767Z,19.70
2022-08-05T06:00:27.823Z,14.60
2022-08-05T06:03:39.844Z,16.23
2022-08-05T06:05:56.292Z,13.43
2022-08-05T06:08:32.341Z,13.50
2022-08-05T06:11:04.222Z,17.77
2022-08-05T06:13:40.839Z,22.48
2022-08-05T06:16:31.774Z,11.02
2022-08-05T06:19:34.986Z,18.52
2022-08-05T06:22:16.039Z,12.23
2022-08-05T06:24:56.265Z,14.82
2022-08-05T06:28:12.677Z,17.17
2022-08-05T06:30:21.417Z,13.15
2022-08-05T06:33:19.332Z,16.75
2022-08-05T06:36:07.984Z,14.48
2022-08-05T06:41:17.664Z,14.13
2022-08-05T06:43:59.265Z,11.15
2022-08-05T06:46:31.116Z,12.73
2022-08-05T06:49:05.644Z,12.73
2022-08-05T06:51:40.821Z,10.23
2022-08-05T06:54:11.942Z,13.27
2022-08-05T06:57:58.139Z,13.73
2022-08-05T06:59:53.481Z,12.32
2022-08-05T07:02:28.531Z,11.98
2022-08-05T07:04:59.984Z,13.23
2022-08-05T07:07:43.067Z,14.50
2022-08-05T07:10:15.045Z,18.10
2022-08-05T07:13:08.754Z,17.00
2022-08-05T07:16:01.715Z,13.93
2022-08-05T07:18:37.124Z,13.07
2022-08-05T07:21:25.793Z,18.10
2022-08-05T07:26:31.945Z,13.48
2022-08-05T07:29:02.654Z,13.13
2022-08-05T07:31:40.728Z,14.93
2022-08-05T07:34:28.453Z,13.50
2022-08-05T07:37:00.124Z,20.95
2022-08-05T07:40:27.095Z,14.75
2022-08-05T07:42:33.571Z,13.88
2022-08-05T07:45:09.271Z,12.23
2022-08-05T07:47:43.024Z,12.32
2022-08-05T07:50:16.569Z,12.25
2022-08-05T07:52:48.122Z,15.40
2022-08-05T07:56:05.849Z,9.77
2022-08-05T07:58:09.758Z,14.77
2022-08-05T08:00:59.951Z,13.75
2022-08-05T08:03:44.608Z,19.38
2022-08-05T08:06:15.528Z,16.95
2022-08-05T08:09:16.928Z,16.27
2022-08-05T08:11:53.658Z,16.15
2022-08-05T08:14:32.122Z,12.85
2022-08-05T08:17:03.537Z,14.82
2022-08-05T08:20:23.058Z,13.73
2022-08-05T08:24:02.055Z,18.40
2022-08-05T08:27:13.726Z,20.33
2022-08-05T08:31:14.887Z,15.00
2022-08-05T08:33:51.555Z,12.02
2022-08-05T08:36:38.778Z,13.85
2022-08-05T09:09:18.598Z,26.75
2022-08-05T09:11:55.279Z,19.60
2022-08-05T09:14:57.545Z,22.25
2022-08-05T09:17:43.108Z,17.67
2022-08-05T09:20:36.484Z,19.98
2022-08-05T09:23:18.512Z,16.88
2022-08-05T09:26:02.155Z,19.52
2022-08-05T09:28:35.701Z,20.13
2022-08-05T09:31:22.949Z,15.82
2022-08-05T09:34:09.803Z,79.82
2022-08-05T09:36:55.053Z,24.75
2022-08-05T09:39:44.801Z,18.70
2022-08-05T09:42:23.981Z,23.10
2022-08-05T09:45:17.895Z,22.85
2022-08-05T09:47:55.958Z,18.55
2022-08-05T09:50:44.469Z,17.95
2022-08-05T09:53:22.782Z,17.80
2022-08-05T09:56:13.142Z,27.65
2022-08-05T09:58:44.052Z,27.10
2022-08-05T10:01:22.571Z,26.67
2022-08-05T10:04:17.530Z,21.60
2022-08-05T10:07:20.202Z,27.45
2022-08-05T10:10:14.681Z,12.80
2022-08-05T10:12:52.666Z,22.85
2022-08-05T10:15:37.934Z,19.60
2022-08-05T10:18:29.352Z,19.83
2022-08-05T10:21:06.136Z,19.45
2022-08-05T10:23:59.557Z,23.27
2022-08-05T10:26:31.581Z,26.63
2022-08-05T10:29:03.979Z,17.55
2022-08-05T10:32:53.398Z,29.77
2022-08-05T10:34:30.076Z,19.40
2022-08-05T10:37:02.140Z,24.38
2022-08-05T10:39:59.047Z,13.82
2022-08-05T10:42:33.512Z,20.88
2022-08-05T10:45:21.025Z,17.33
2022-08-05T10:48:31.422Z,25.63
2022-08-05T10:51:22.153Z,20.55
2022-08-05T10:54:00.989Z,14.65
2022-08-05T10:56:46.328Z,22.38
2022-08-05T11:00:02.962Z,18.27
2022-08-05T11:02:38.088Z,22.02
2022-08-05T11:05:13.563Z,28.17
2022-08-05T11:08:12.755Z,21.33
2022-08-05T11:11:00.853Z,19.48
2022-08-05T11:13:55.082Z,19.42
2022-08-05T11:16:33.901Z,20.77
2022-08-05T11:20:11.121Z,21.92
2022-08-05T11:22:42.620Z,21.17
2022-08-05T11:26:05.698Z,22.27
2022-08-05T11:28:26.861Z,17.50
2022-08-05T11:31:00.235Z,19.92
2022-08-05T11:33:46.247Z,48.03
2022-08-05T11:36:34.385Z,17.50
2022-08-05T11:39:11.524Z,19.02
2022-08-05T11:42:01.248Z,25.92
2022-08-05T11:44:53.603Z,17.75
2022-08-05T11:47:49.511Z,23.30
2022-08-05T11:50:17.356Z,18.27
2022-08-05T11:52:49.567Z,20.10
2022-08-05T11:55:21.650Z,21.38
2022-08-05T11:58:09.810Z,21.67
2022-08-05T12:03:31.732Z,19.92
2022-08-05T12:06:10.074Z,29.75
2022-08-05T12:08:51.575Z,26.33
2022-08-05T12:11:39.710Z,22.10
2022-08-05T12:14:11.989Z,28.65
2022-08-05T12:16:45.436Z,30.30
2022-08-05T12:20:25.468Z,32.35
2022-08-05T12:22:09.846Z,34.60
2022-08-05T12:24:49.689Z,33.15
2022-08-05T12:27:34.664Z,30.90
2022-08-05T12:30:24.598Z,27.50
2022-08-05T12:33:07.247Z,32.47
2022-08-05T12:35:53.870Z,30.65
2022-08-05T12:38:31.425Z,29.67
2022-08-05T12:41:02.765Z,38.97
2022-08-05T12:43:33.055Z,28.05
2022-08-05T12:46:12.502Z,34.33
2022-08-05T12:48:43.616Z,24.92
2022-08-05T12:52:10.299Z,32.78
2022-08-05T12:54:16.539Z,34.13
2022-08-05T12:56:54.809Z,36.13
2022-08-05T13:01:58.022Z,29.80
2022-08-05T13:02:30.391Z,32.08
2022-08-05T13:05:01.128Z,35.05
2022-08-05T13:07:57.579Z,36.85
2022-08-05T13:10:22.491Z,48.55
2022-08-05T13:12:58.115Z,45.60
2022-08-05T13:15:41.721Z,36.60
2022-08-05T13:18:24.179Z,36.70
2022-08-05T13:20:54.574Z,35.90
2022-08-05T13:23:25.140Z,35.65
2022-08-05T13:25:59.218Z,42.47
2022-08-05T13:28:32.472Z,39.92
2022-08-05T13:31:14.109Z,31.92
2022-08-05T13:34:24.736Z,31.92
2022-08-05T13:36:40.599Z,34.03
2022-08-05T13:40:13.726Z,34.50
2022-08-05T13:42:02.051Z,35.33
2022-08-05T13:44:34.655Z,34.70
2022-08-05T13:47:08.847Z,41.35
2022-08-05T13:49:45.361Z,28.60
2022-08-05T13:52:19.286Z,42.53
2022-08-05T13:55:01.177Z,36.67
2022-08-05T13:57:51.572Z,31.55
2022-08-05T14:00:27.293Z,38.15
2022-08-05T14:03:01.720Z,30.88
2022-08-05T14:06:04.958Z,34.28
2022-08-05T14:08:27.732Z,31.58
2022-08-05T14:11:03.311Z,36.28
2022-08-05T14:13:49.403Z,35.85
2022-08-05T14:16:25.869Z,26.23
2022-08-05T14:18:56.614Z,33.35
2022-08-05T14:22:08.962Z,39.15
2022-08-05T14:24:19.365Z,32.53
2022-08-05T14:27:02.283Z,33.45
2022-08-05T14:29:40.322Z,31.63
2022-08-05T14:32:17.155Z,30.42
2022-08-05T14:35:07.271Z,32.90
2022-08-05T14:37:47.282Z,29.42
2022-08-05T14:40:19.511Z,31.70
2022-08-05T14:42:50.229Z,32.50
2022-08-05T14:45:20.775Z,37.08
2022-08-05T14:48:04.116Z,33.95
2022-08-05T14:50:40.791Z,30.95
2022-08-05T14:53:11.418Z,33.85
2022-08-05T14:55:44.078Z,25.10
2022-08-05T14:58:22.558Z,33.42
2022-08-05T15:00:59.215Z,22.65
2022-08-05T15:03:39.293Z,31.40
2022-08-05T15:06:15.058Z,24.95
2022-08-05T15:09:01.542Z,28.67
2022-08-05T15:11:52.509Z,25.92
2022-08-05T15:14:35.551Z,35.30
2022-08-05T15:17:44.788Z,26.63
2022-08-05T15:20:04.104Z,33.60
2022-08-05T15:22:34.423Z,25.83
2022-08-05T15:25:14.177Z,35.28
2022-08-05T15:27:52.522Z,28.75
2022-08-05T15:30:25.296Z,50.78
2022-08-05T15:32:57.555Z,36.60
2022-08-05T15:35:28.766Z,32.60
2022-08-05T15:38:31.699Z,32.07
2022-08-05T15:41:21.874Z,27.23
2022-08-05T15:43:48.360Z,39.35
2022-08-05T15:46:19.018Z,35.40
2022-08-05T15:48:52.841Z,35.83
2022-08-05T15:54:19.827Z,26.92
2022-08-05T15:57:07.555Z,29.95
2022-08-05T15:59:38.845Z,27.10
2022-08-05T16:02:14.682Z,35.13
2022-08-05T16:04:50.146Z,36.17
2022-08-05T16:07:25.203Z,40.05
2022-08-05T16:10:00.612Z,30.88
2022-08-05T16:12:31.047Z,32.42
2022-08-05T16:15:04.356Z,31.02
2022-08-05T16:17:35.356Z,28.02
2022-08-05T16:20:11.279Z,26.25
2022-08-05T16:22:42.523Z,28.75
2022-08-05T16:25:13.038Z,28.23
2022-08-05T16:28:00.316Z,31.27
2022-08-05T16:30:36.358Z,29.08
2022-08-05T16:33:07.145Z,34.65
2022-08-05T16:35:43.135Z,33.92
2022-08-05T16:38:25.212Z,33.13
2022-08-05T16:41:01.286Z,33.13
2022-08-05T16:43:34.197Z,33.92
2022-08-05T16:46:12.839Z,31.58
2022-08-05T16:48:55.595Z,38.63
2022-08-05T16:51:30.693Z,43.08
2022-08-05T16:54:17.523Z,39.67
2022-08-05T16:56:52.141Z,35.08
2022-08-05T16:59:22.735Z,34.20
2022-08-05T17:01:55.928Z,36.28
2022-08-05T17:04:28.688Z,41.95
2022-08-05T17:07:11.272Z,42.22
2022-08-05T17:09:58.360Z,38.60
2022-08-05T17:12:51.145Z,31.58
2022-08-05T17:15:20.927Z,30.25
2022-08-05T17:17:55.159Z,31.70
2022-08-05T17:20:32.944Z,28.70
2022-08-05T17:23:03.343Z,34.53
2022-08-05T17:25:40.373Z,29.95
2022-08-05T17:28:15.585Z,31.90
2022-08-05T17:30:50.511Z,36.20
2022-08-05T17:33:23.322Z,33.58
2022-08-05T17:36:08.161Z,36.95
2022-08-05T17:38:41.150Z,38.75
2022-08-05T17:42:18.392Z,29.60
2022-08-05T17:44:02.678Z,34.83
2022-08-05T17:46:34.615Z,32.42
2022-08-05T17:49:04.985Z,36.78
2022-08-05T17:51:40.136Z,33.22
2022-08-05T17:54:11.323Z,34.58
2022-08-05T17:56:44.826Z,34.60
2022-08-05T17:59:22.791Z,32.90
2022-08-05T18:01:53.967Z,33.25
2022-08-05T18:04:27.823Z,33.65
2022-08-05T18:07:01.931Z,34.15
2022-08-05T18:09:58.721Z,38.05
2022-08-05T18:12:24.432Z,30.85
2022-08-05T18:14:55.192Z,27.45
2022-08-05T18:18:00.669Z,30.52
2022-08-05T18:20:16.682Z,32.00
2022-08-05T18:22:54.543Z,37.30
2022-08-05T18:25:25.398Z,36.03
2022-08-05T18:28:05.273Z,33.28
2022-08-05T18:30:39.134Z,35.95
2022-08-05T18:33:13.630Z,32.47
2022-08-05T18:35:50.039Z,32.78
2022-08-05T18:38:37.846Z,30.15
2022-08-05T18:41:56.736Z,26.70
2022-08-05T18:44:05.732Z,34.45
2022-08-05T18:46:38.216Z,25.20
2022-08-05T18:49:30.560Z,30.35
2022-08-05T18:52:19.538Z,29.10
2022-08-05T18:55:04.910Z,25.52
2022-08-05T18:57:43.179Z,31.45
2022-08-05T19:00:20.339Z,35.55
2022-08-05T19:02:51.362Z,29.02
2022-08-05T19:06:11.362Z,26.63
2022-08-05T19:08:17.487Z,27.17
2022-08-05T19:10:49.305Z,33.35
2022-08-05T19:13:20.303Z,33.35
2022-08-05T19:15:59.790Z,26.85
2022-08-05T19:18:34.429Z,29.52
2022-08-05T19:21:05.376Z,26.70
2022-08-05T19:24:05.272Z,26.05
2022-08-05T19:26:27.628Z,29.42
2022-08-05T19:28:57.934Z,28.08
2022-08-05T19:31:28.562Z,28.15
2022-08-05T19:34:04.174Z,33.63
2022-08-05T19:36:36.256Z,33.55
2022-08-05T19:39:08.014Z,31.58
2022-08-05T19:42:06.039Z,30.13
2022-08-05T19:44:29.989Z,26.52
2022-08-05T19:47:00.620Z,23.02
2022-08-05T19:49:31.103Z,23.33
2022-08-05T19:52:05.390Z,24.13
2022-08-05T19:54:39.700Z,28.40
2022-08-05T19:57:13.055Z,23.92
2022-08-05T20:00:00.881Z,29.80
2022-08-05T20:02:34.402Z,29.13
2022-08-05T20:05:09.684Z,28.98
2022-08-05T20:07:59.079Z,26.65
2022-08-05T20:10:29.591Z,29.75
2022-08-05T20:13:00.579Z,25.25
2022-08-05T20:15:51.837Z,28.73
2022-08-05T20:18:32.819Z,31.13
2022-08-05T20:21:07.094Z,30.58
2022-08-05T20:23:51.144Z,25.83
2022-08-05T20:26:26.913Z,27.13
2022-08-05T20:29:00.563Z,31.10
2022-08-05T20:31:42.260Z,35.30
2022-08-05T20:34:21.915Z,32.00
2022-08-05T20:36:53.566Z,36.53
2022-08-05T20:39:24.254Z,40.67
2022-08-05T20:42:07.017Z,35.47
2022-08-05T20:44:42.109Z,34.70
2022-08-05T20:47:14.410Z,40.10
2022-08-05T20:49:45.465Z,36.00
2022-08-05T20:52:21.747Z,33.00
2022-08-05T20:54:59.157Z,40.20
2022-08-05T20:57:44.057Z,35.33
2022-08-05T21:00:40.235Z,33.72
2022-08-05T21:03:09.134Z,36.78
2022-08-05T21:05:54.108Z,40.15
2022-08-05T21:08:35.790Z,42.88
2022-08-05T21:11:51.572Z,36.58
2022-08-05T21:14:04.475Z,45.22
2022-08-05T21:16:36.143Z,36.78
2022-08-05T21:19:06.741Z,42.03
2022-08-05T21:21:43.909Z,43.33
2022-08-05T21:24:20.774Z,42.35
2022-08-05T21:26:58.383Z,36.15
2022-08-05T21:29:31.454Z,31.17
2022-08-05T21:32:04.500Z,25.10
2022-08-05T21:34:35.622Z,21.90
2022-08-05T21:37:07.192Z,21.25
2022-08-05T21:39:40.469Z,21.33
2022-08-05T21:42:30.775Z,17.85
2022-08-05T21:45:02.191Z,12.35
2022-08-05T21:47:56.526Z,8.65
2022-08-05T21:50:24.115Z,6.07
2022-08-05T21:52:58.885Z,4.72
2022-08-05T21:55:42.809Z,2.65
2022-08-05T21:58:31.747Z,4.07
2022-08-05T22:01:03.338Z,2.42
2022-08-05T22:03:52.543Z,5.38
2022-08-05T22:06:35.548Z,2.58
2022-08-05T22:09:13.775Z,3.38
2022-08-05T22:11:47.307Z,3.95
2022-08-05T22:14:34.479Z,5.32
2022-08-05T22:17:08.239Z,7.35
2022-08-05T22:19:57.246Z,3.88
2022-08-05T22:22:31.191Z,3.88
2022-08-05T22:25:23.988Z,5.40
2022-08-05T22:28:09.564Z,6.50
2022-08-05T22:30:56.688Z,10.68
2022-08-05T22:33:58.635Z,9.15
2022-08-05T22:36:24.136Z,6.70
2022-08-05T22:38:54.978Z,9.40
2022-08-05T22:42:09.323Z,8.55
2022-08-05T22:44:19.113Z,7.05
2022-08-05T22:46:50.563Z,8.52
2022-08-05T22:50:17.418Z,5.95
2022-08-05T22:52:22.742Z,3.67
2022-08-05T22:55:00.979Z,9.55
2022-08-05T22:57:34.171Z,6.25
2022-08-05T23:00:09.672Z,10.90
2022-08-05T23:02:46.857Z,8.80
2022-08-05T23:05:22.173Z,5.47
2022-08-05T23:07:54.392Z,7.70
2022-08-05T23:10:26.088Z,9.77
2022-08-05T23:12:57.693Z,10.13
2022-08-05T23:15:34.989Z,9.95
2022-08-05T23:18:11.826Z,10.38
2022-08-05T23:20:46.386Z,9.18
2022-08-05T23:23:16.953Z,12.35
2022-08-05T23:25:52.294Z,9.35
2022-08-05T23:28:28.752Z,15.35
2022-08-05T23:31:15.823Z,12.50
2022-08-05T23:34:04.982Z,20.00
2022-08-05T23:36:39.942Z,16.73
2022-08-05T23:39:23.621Z,12.65
2022-08-05T23:42:03.209Z,13.15
2022-08-05T23:44:34.515Z,19.73
2022-08-05T23:47:15.219Z,25.27
2022-08-05T23:49:49.657Z,23.02
2022-08-05T23:52:28.988Z,25.25
2022-08-05T23:55:09.012Z,19.50
2022-08-05T23:57:40.549Z,18.25
